Etusivu
METAR-TAF:

METAR-TAF

Lentoasemat :

New Richmond Regional Airport

New Richmond, Wisconsin, Yhdysvallat

Leveyspiiri: 45-08-54N, Pituuspiiri: 092-32-17W, korkeus merenpinnasta: 304 m

Tämänhetkinen sää

Tämä raportti tehtiin 22 minuuttia sitten, kello 03.35 UTC
Tuuli 11 kn pohjoisesta/koillisesta
Lämpötila 5°C
Kosteus 87%
Ilmanpaine 1019 hPa
Näkyvyys: 16.1 km
selkeää

METAR: KRNH 230335Z AUTO 02011KT 10SM CLR 05/03 A3008 RMK AO2 T00500028

Aika: 22:57 (03:57 UTC)

Sääennuste

Tämä raportti tehtiin 18 minuuttia sitten, kello 03.39 UTC
Ennuste voimassa 23. päivästä klo 04 UTC - 23. päivään klo 24 UTC
Tuuli 11 kn pohjoisesta/koillisesta
Näkyvyys: 10 km
Hajonneita pilviä 25000 ft:n korkeudessa
From 23. päivästä klo 0600 UTC
Tuuli 4 kn pohjoisesta
Näkyvyys: 10 km
selkeää
From 23. päivästä klo 1800 UTC
Tuuli 6 kn lännestä
Näkyvyys: 10 km
selkeää

TAF: KRNH 230339Z 2304/2324 02011KT P6SM BKN250 FM230600 36004KT P6SM SKC FM231800 28006KT P6SM SKC

Säähavainnot ja -ennusteet yli 4000 lentoasemalta (METAR- ja TAF-raportit).

Käytössä olevat sääasemat on merkitty karttaan keltaisilla ja punaisilla pisteillä.

Aseta hiiri pisteen päälle nähdäksesi sääaseman nimen.

Klikkaa sitten nähdäksesi säähavainnot ja -ennusteet.

Kartan vaihtaminen: klikkaa mustalla rastilla varustettuja vihreitä pisteitä, niin voit zoomata sisään; viivalla varustettua vihreää pistettä, niin voit zoomata ulos tai vihreitä nuolia, niin pääset viereisille kartoille.


METAR-TAF: